Time;durP1;ratioP1;P1;durP2;ratioP2;P2;SDS_P1;SDS_P2;PMS_P1;PMS_P2;Temp;Humidity;BMP_temperature;BMP_pressure;BME280_temperature;BME280_humidity;BME280_pressure;Samples;Min_cycle;Max_cycle;Signal;HPM_P1;HPM_P2
2023/01/27 00:02:40;;;;;;;140.52;49.72;;;;;;;;;;6312042;28;20052;-62
2023/01/27 00:05:41;;;;;;;134.77;50.08;;;;;;;;;;6315926;28;20066;-62
2023/01/27 00:08:41;;;;;;;137.25;48.50;;;;;;;;;;6319135;28;20040;-63
2023/01/27 00:15:02;;;;;;;127.22;45.28;;;;;;;;;;6318805;28;20851;-63
2023/01/27 00:18:03;;;;;;;134.57;50.40;;;;;;;;;;6318468;28;20079;-62
2023/01/27 00:24:35;;;;;;;139.18;50.10;;;;;;;;;;6314150;28;20036;-63
2023/01/27 00:27:36;;;;;;;146.25;53.65;;;;;;;;;;6315989;28;20044;-64
2023/01/27 00:30:36;;;;;;;201.65;70.88;;;;;;;;;;6318537;28;20055;-64
2023/01/27 00:33:37;;;;;;;231.50;83.53;;;;;;;;;;6318419;28;20075;-62
2023/01/27 00:36:39;;;;;;;227.55;80.70;;;;;;;;;;6318115;28;20056;-63
2023/01/27 00:39:40;;;;;;;202.23;76.15;;;;;;;;;;6317921;28;20060;-63
2023/01/27 00:42:40;;;;;;;177.95;67.68;;;;;;;;;;6302808;28;20047;-63
2023/01/27 00:45:47;;;;;;;170.80;64.68;;;;;;;;;;6308809;28;20044;-62
2023/01/27 00:48:48;;;;;;;159.52;59.33;;;;;;;;;;6295421;28;20044;-63
2023/01/27 00:51:49;;;;;;;176.80;63.50;;;;;;;;;;6308058;28;20050;-62
2023/01/27 00:54:50;;;;;;;167.32;62.95;;;;;;;;;;6314918;28;20056;-64
2023/01/27 00:57:50;;;;;;;178.00;65.68;;;;;;;;;;6317317;28;20481;-61
2023/01/27 01:00:52;;;;;;;175.57;65.70;;;;;;;;;;6318260;28;20036;-63
2023/01/27 01:03:53;;;;;;;177.63;67.35;;;;;;;;;;6317188;28;20874;-61
2023/01/27 01:06:54;;;;;;;180.95;66.15;;;;;;;;;;6314698;28;20040;-64
2023/01/27 01:09:55;;;;;;;168.68;62.92;;;;;;;;;;6309973;28;20079;-64
2023/01/27 01:12:55;;;;;;;173.48;63.85;;;;;;;;;;6310520;28;20474;-63
2023/01/27 01:15:56;;;;;;;170.43;61.65;;;;;;;;;;6308191;28;20044;-62
2023/01/27 01:18:57;;;;;;;176.73;61.10;;;;;;;;;;6310058;28;20165;-63
2023/01/27 01:21:57;;;;;;;153.90;55.20;;;;;;;;;;6308994;28;20043;-63
2023/01/27 01:24:58;;;;;;;143.48;53.33;;;;;;;;;;6316916;28;20440;-63
2023/01/27 01:27:59;;;;;;;140.27;53.50;;;;;;;;;;6307442;28;20273;-63
2023/01/27 01:31:08;;;;;;;140.45;52.65;;;;;;;;;;6316494;28;20043;-64
2023/01/27 01:34:08;;;;;;;122.32;45.25;;;;;;;;;;6309347;28;20044;-63
2023/01/27 01:37:09;;;;;;;128.70;47.40;;;;;;;;;;6297006;28;20053;-62
2023/01/27 01:40:14;;;;;;;126.43;47.15;;;;;;;;;;6289566;28;20059;-62
2023/01/27 01:43:16;;;;;;;125.65;44.63;;;;;;;;;;6295539;28;20044;-62
2023/01/27 01:46:18;;;;;;;118.72;44.92;;;;;;;;;;6298262;28;20131;-61
2023/01/27 01:49:24;;;;;;;118.73;44.10;;;;;;;;;;6304582;28;20071;-62
2023/01/27 01:52:25;;;;;;;120.75;44.67;;;;;;;;;;6312630;28;20115;-64
2023/01/27 01:55:26;;;;;;;127.32;48.53;;;;;;;;;;6303788;28;20074;-63
2023/01/27 01:58:27;;;;;;;128.57;48.85;;;;;;;;;;6310169;28;20048;-64
2023/01/27 02:01:27;;;;;;;136.88;47.83;;;;;;;;;;6306024;28;20045;-62
2023/01/27 02:04:35;;;;;;;120.60;44.72;;;;;;;;;;6313731;28;20537;-62
2023/01/27 02:07:46;;;;;;;121.05;44.67;;;;;;;;;;6316681;28;20047;-62
2023/01/27 02:10:48;;;;;;;126.70;44.83;;;;;;;;;;6306319;28;20036;-63
2023/01/27 02:13:48;;;;;;;117.80;43.28;;;;;;;;;;6310101;28;20040;-62
2023/01/27 02:16:49;;;;;;;123.35;44.17;;;;;;;;;;6313618;28;20039;-62
2023/01/27 02:20:07;;;;;;;117.90;41.70;;;;;;;;;;6320889;28;20058;-64
2023/01/27 02:23:30;;;;;;;111.50;41.45;;;;;;;;;;6314989;28;20432;-62
2023/01/27 02:26:42;;;;;;;127.07;43.83;;;;;;;;;;6312889;28;20086;-62
2023/01/27 02:29:43;;;;;;;121.88;42.13;;;;;;;;;;6309808;28;20050;-63
2023/01/27 02:32:43;;;;;;;115.18;40.70;;;;;;;;;;6306832;28;20041;-61
2023/01/27 02:35:58;;;;;;;114.57;40.38;;;;;;;;;;6303232;28;20051;-63
2023/01/27 02:39:01;;;;;;;106.88;39.05;;;;;;;;;;6307452;28;20052;-62
2023/01/27 02:42:04;;;;;;;108.70;39.85;;;;;;;;;;6294908;28;20045;-62
2023/01/27 02:45:05;;;;;;;111.80;40.38;;;;;;;;;;6301589;28;20048;-63
2023/01/27 02:48:06;;;;;;;111.22;40.58;;;;;;;;;;6294107;28;20131;-62
2023/01/27 02:51:06;;;;;;;101.75;35.22;;;;;;;;;;6294081;28;20359;-65
2023/01/27 02:54:07;;;;;;;94.50;33.97;;;;;;;;;;6295244;28;20978;-64
2023/01/27 02:57:08;;;;;;;103.00;37.58;;;;;;;;;;6295665;28;20049;-62
2023/01/27 03:00:12;;;;;;;98.40;35.63;;;;;;;;;;6291864;28;20036;-62
2023/01/27 03:03:12;;;;;;;101.75;38.05;;;;;;;;;;6293771;28;20052;-64
2023/01/27 03:06:13;;;;;;;93.00;34.03;;;;;;;;;;6309209;28;20552;-62
2023/01/27 03:09:14;;;;;;;101.28;37.15;;;;;;;;;;6310098;28;20048;-63
2023/01/27 03:12:21;;;;;;;105.95;38.20;;;;;;;;;;6305851;28;20048;-63
2023/01/27 03:18:46;;;;;;;99.38;36.17;;;;;;;;;;6316843;28;20146;-63
2023/01/27 03:21:49;;;;;;;96.63;35.42;;;;;;;;;;6301558;28;20433;-63
2023/01/27 03:24:51;;;;;;;116.05;36.55;;;;;;;;;;6286722;28;20058;-63
2023/01/27 03:27:51;;;;;;;104.53;34.13;;;;;;;;;;6298397;28;20040;-62
2023/01/27 03:31:03;;;;;;;93.28;35.17;;;;;;;;;;6306847;28;20426;-62
2023/01/27 03:34:04;;;;;;;94.68;32.30;;;;;;;;;;6298384;28;20498;-62
2023/01/27 03:47:03;;;;;;;91.35;31.80;;;;;;;;;;6304156;28;20403;-64
2023/01/27 03:50:10;;;;;;;92.18;31.83;;;;;;;;;;6291637;28;20128;-62
2023/01/27 03:53:10;;;;;;;89.97;32.00;;;;;;;;;;6290819;28;20416;-63
2023/01/27 03:56:12;;;;;;;96.35;33.45;;;;;;;;;;6317374;28;20058;-65
2023/01/27 03:59:13;;;;;;;89.35;32.38;;;;;;;;;;6303393;28;20048;-62
2023/01/27 04:08:52;;;;;;;101.50;36.40;;;;;;;;;;6301897;28;20064;-62
2023/01/27 04:11:54;;;;;;;90.38;31.30;;;;;;;;;;6290809;28;20157;-61
2023/01/27 04:14:54;;;;;;;;;;;;;;;;;;6305750;28;20501;-62
2023/01/27 04:17:55;;;;;;;85.90;29.75;;;;;;;;;;6309418;28;19924;-63
2023/01/27 04:20:56;;;;;;;93.20;31.30;;;;;;;;;;6297442;28;20051;-62
2023/01/27 04:23:56;;;;;;;84.97;31.30;;;;;;;;;;6291622;28;20045;-62
2023/01/27 04:27:06;;;;;;;92.13;31.80;;;;;;;;;;6290155;28;20082;-63
2023/01/27 04:30:07;;;;;;;89.72;31.45;;;;;;;;;;6289087;28;20482;-62
2023/01/27 04:33:09;;;;;;;87.47;31.83;;;;;;;;;;6290827;28;20863;-64
2023/01/27 04:36:14;;;;;;;84.57;33.13;;;;;;;;;;6289510;28;20105;-62
2023/01/27 04:39:16;;;;;;;100.32;32.45;;;;;;;;;;6292506;28;20498;-62
2023/01/27 04:42:16;;;;;;;89.20;31.87;;;;;;;;;;6290181;28;20413;-62
2023/01/27 04:45:17;;;;;;;90.55;31.25;;;;;;;;;;6296534;28;20082;-63
2023/01/27 04:48:17;;;;;;;95.53;32.60;;;;;;;;;;6284662;28;20482;-63
2023/01/27 04:51:18;;;;;;;125.85;41.35;;;;;;;;;;6287396;28;20044;-63
2023/01/27 04:54:19;;;;;;;122.38;41.20;;;;;;;;;;6294435;28;20513;-63
2023/01/27 04:57:20;;;;;;;113.22;39.58;;;;;;;;;;6290690;28;20492;-62
2023/01/27 05:00:20;;;;;;;105.10;36.17;;;;;;;;;;6293362;28;20062;-62
2023/01/27 05:03:21;;;;;;;89.78;32.80;;;;;;;;;;6284536;28;20044;-62
2023/01/27 05:06:23;;;;;;;99.82;34.05;;;;;;;;;;6290458;28;20039;-62
2023/01/27 05:09:24;;;;;;;91.20;34.42;;;;;;;;;;6286215;28;20048;-62
2023/01/27 05:12:25;;;;;;;91.55;31.63;;;;;;;;;;6286950;28;20453;-62
2023/01/27 05:15:25;;;;;;;95.65;32.67;;;;;;;;;;6293085;28;20140;-62
2023/01/27 05:18:26;;;;;;;93.07;33.17;;;;;;;;;;6288347;28;20844;-62
2023/01/27 05:21:29;;;;;;;90.07;31.50;;;;;;;;;;6296519;28;20041;-61
2023/01/27 05:24:30;;;;;;;92.97;30.60;;;;;;;;;;6292774;28;20101;-62
2023/01/27 05:27:31;;;;;;;73.30;26.25;;;;;;;;;;6290838;28;20105;-62
2023/01/27 05:30:31;;;;;;;83.35;28.67;;;;;;;;;;6290351;28;20170;-62
2023/01/27 05:33:32;;;;;;;81.25;26.38;;;;;;;;;;6291459;28;20048;-62
2023/01/27 05:36:33;;;;;;;70.82;26.00;;;;;;;;;;6306863;28;20048;-62
2023/01/27 05:39:33;;;;;;;72.43;26.48;;;;;;;;;;6317208;28;20070;-63
2023/01/27 05:42:34;;;;;;;71.57;24.92;;;;;;;;;;6316427;28;20044;-64
2023/01/27 05:45:36;;;;;;;67.20;23.95;;;;;;;;;;6302136;28;20049;-62
2023/01/27 05:48:39;;;;;;;71.88;23.95;;;;;;;;;;6297454;28;20490;-61
2023/01/27 05:51:39;;;;;;;70.15;23.35;;;;;;;;;;6308022;28;20490;-62
2023/01/27 05:54:40;;;;;;;68.18;21.45;;;;;;;;;;6300359;28;20058;-62
2023/01/27 05:57:40;;;;;;;61.22;20.70;;;;;;;;;;6293916;28;20480;-62
2023/01/27 06:00:41;;;;;;;60.90;20.70;;;;;;;;;;6290826;28;20053;-61
2023/01/27 06:03:43;;;;;;;57.45;19.48;;;;;;;;;;6293199;28;20040;-63
2023/01/27 06:06:43;;;;;;;57.30;19.13;;;;;;;;;;6293007;28;20215;-63
2023/01/27 06:09:44;;;;;;;52.60;18.35;;;;;;;;;;6291543;28;20075;-61
2023/01/27 06:12:44;;;;;;;51.30;19.20;;;;;;;;;;6292670;28;20074;-60
2023/01/27 06:15:46;;;;;;;55.67;19.15;;;;;;;;;;6288942;28;20055;-61
2023/01/27 06:18:47;;;;;;;50.70;18.95;;;;;;;;;;6292218;28;20056;-61
2023/01/27 06:21:48;;;;;;;52.78;20.60;;;;;;;;;;6292555;28;20041;-60
2023/01/27 06:24:49;;;;;;;71.10;22.35;;;;;;;;;;6291444;28;20118;-64
2023/01/27 06:27:56;;;;;;;88.47;26.60;;;;;;;;;;6293114;28;20040;-61
2023/01/27 06:31:05;;;;;;;97.30;26.40;;;;;;;;;;6296583;28;20063;-61
2023/01/27 06:34:05;;;;;;;84.50;24.73;;;;;;;;;;6304836;28;20044;-60
2023/01/27 06:37:06;;;;;;;104.45;28.63;;;;;;;;;;6313874;28;20557;-60
2023/01/27 06:40:07;;;;;;;85.72;25.83;;;;;;;;;;6315032;28;20078;-61
2023/01/27 06:43:11;;;;;;;73.90;23.63;;;;;;;;;;6315900;28;20048;-60
2023/01/27 06:46:13;;;;;;;82.32;24.30;;;;;;;;;;6315246;28;20044;-61
2023/01/27 06:49:14;;;;;;;74.97;25.35;;;;;;;;;;6315859;28;20044;-63
2023/01/27 06:52:15;;;;;;;60.00;20.23;;;;;;;;;;6315320;28;20040;-61
2023/01/27 06:55:15;;;;;;;58.20;19.15;;;;;;;;;;6315254;28;20676;-61
2023/01/27 06:58:16;;;;;;;58.85;20.77;;;;;;;;;;6315720;28;20040;-60
2023/01/27 07:01:16;;;;;;;64.85;19.50;;;;;;;;;;6318407;28;20062;-63
2023/01/27 07:04:17;;;;;;;50.58;19.20;;;;;;;;;;6320369;28;20047;-60
2023/01/27 07:07:17;;;;;;;54.90;19.98;;;;;;;;;;6320117;28;20036;-62
2023/01/27 07:10:19;;;;;;;55.22;19.55;;;;;;;;;;6320223;28;20072;-59
2023/01/27 07:13:19;;;;;;;56.72;21.38;;;;;;;;;;6320383;28;20067;-61
2023/01/27 07:16:20;;;;;;;59.30;20.35;;;;;;;;;;6319460;28;20421;-61
2023/01/27 07:19:20;;;;;;;52.47;19.05;;;;;;;;;;6320046;28;20508;-60
2023/01/27 07:22:21;;;;;;;60.75;19.60;;;;;;;;;;6319637;28;20043;-58
2023/01/27 07:25:21;;;;;;;50.92;18.30;;;;;;;;;;6319868;28;20048;-59
2023/01/27 07:28:22;;;;;;;57.90;20.00;;;;;;;;;;6318398;28;20072;-61
2023/01/27 07:31:22;;;;;;;58.05;20.42;;;;;;;;;;6319563;28;20051;-61
2023/01/27 07:34:23;;;;;;;56.78;19.00;;;;;;;;;;6319983;28;20044;-57
2023/01/27 07:37:24;;;;;;;60.38;20.23;;;;;;;;;;6319203;28;20052;-61
2023/01/27 07:40:24;;;;;;;57.58;18.90;;;;;;;;;;6300973;28;20098;-62
2023/01/27 07:43:25;;;;;;;64.18;22.17;;;;;;;;;;6319440;28;20040;-62
2023/01/27 07:46:25;;;;;;;58.38;21.55;;;;;;;;;;6319187;28;20048;-62
2023/01/27 07:49:26;;;;;;;63.55;20.05;;;;;;;;;;6319036;28;20044;-59
2023/01/27 07:52:27;;;;;;;56.55;19.55;;;;;;;;;;6319140;28;20415;-61
2023/01/27 07:55:29;;;;;;;58.03;20.48;;;;;;;;;;6318446;28;20044;-64
2023/01/27 07:58:29;;;;;;;59.08;21.55;;;;;;;;;;6319311;28;20040;-61
2023/01/27 08:01:30;;;;;;;66.18;22.10;;;;;;;;;;6313161;28;20044;-61
2023/01/27 08:04:30;;;;;;;59.55;20.25;;;;;;;;;;6295203;28;20049;-63
2023/01/27 08:07:31;;;;;;;63.13;21.60;;;;;;;;;;6295575;28;20055;-61
2023/01/27 08:10:32;;;;;;;64.93;22.95;;;;;;;;;;6296187;28;20048;-60
2023/01/27 08:13:33;;;;;;;62.95;22.70;;;;;;;;;;6293199;28;20071;-60
2023/01/27 08:16:34;;;;;;;60.47;22.27;;;;;;;;;;6292740;28;20049;-60
2023/01/27 08:19:34;;;;;;;62.67;20.85;;;;;;;;;;6294232;28;20052;-63
2023/01/27 08:22:35;;;;;;;64.00;22.35;;;;;;;;;;6294819;28;20110;-61
2023/01/27 08:25:35;;;;;;;67.13;22.48;;;;;;;;;;6294760;28;20047;-61
2023/01/27 08:28:38;;;;;;;61.47;20.65;;;;;;;;;;6295095;28;20047;-61
2023/01/27 08:31:40;;;;;;;58.85;19.95;;;;;;;;;;6294434;28;20126;-61
2023/01/27 08:34:41;;;;;;;58.28;20.83;;;;;;;;;;6311302;28;20054;-61
2023/01/27 08:37:41;;;;;;;59.03;21.67;;;;;;;;;;6301804;28;20048;-60
2023/01/27 08:40:45;;;;;;;59.97;20.70;;;;;;;;;;6292543;28;20921;-62
2023/01/27 08:43:46;;;;;;;59.78;22.58;;;;;;;;;;6294362;28;20047;-61
2023/01/27 08:46:47;;;;;;;61.13;22.57;;;;;;;;;;6296792;28;20044;-63
2023/01/27 08:49:48;;;;;;;78.88;27.02;;;;;;;;;;6318455;28;20052;-61
2023/01/27 08:52:48;;;;;;;70.60;24.73;;;;;;;;;;6294583;28;20045;-61
2023/01/27 08:55:50;;;;;;;69.38;24.40;;;;;;;;;;6295297;28;20059;-62
2023/01/27 08:58:51;;;;;;;80.50;28.33;;;;;;;;;;6292190;28;20040;-60
2023/01/27 09:01:52;;;;;;;76.15;26.42;;;;;;;;;;6306197;28;20044;-61
2023/01/27 09:04:52;;;;;;;76.40;26.63;;;;;;;;;;6312785;28;20106;-61
2023/01/27 09:07:53;;;;;;;74.70;25.92;;;;;;;;;;6296060;28;20734;-61
2023/01/27 09:10:54;;;;;;;65.40;23.17;;;;;;;;;;6317936;28;20043;-62
2023/01/27 09:13:55;;;;;;;75.22;24.95;;;;;;;;;;6309753;28;20048;-61
2023/01/27 09:16:56;;;;;;;68.32;24.60;;;;;;;;;;6312872;28;20050;-61
2023/01/27 09:19:56;;;;;;;64.90;22.77;;;;;;;;;;6292260;28;20052;-64
2023/01/27 09:22:57;;;;;;;54.65;19.63;;;;;;;;;;6301382;28;20044;-61
2023/01/27 09:25:58;;;;;;;63.40;21.60;;;;;;;;;;6313860;28;20048;-61
2023/01/27 09:28:58;;;;;;;56.33;21.00;;;;;;;;;;6293699;28;20040;-61
2023/01/27 09:31:59;;;;;;;58.03;21.58;;;;;;;;;;6293527;28;20060;-65
2023/01/27 09:34:59;;;;;;;54.40;20.25;;;;;;;;;;6314923;28;20554;-62
2023/01/27 09:38:00;;;;;;;55.92;22.55;;;;;;;;;;6301709;28;20053;-61
2023/01/27 09:41:30;;;;;;;61.38;21.60;;;;;;;;;;6291619;28;20673;-61
2023/01/27 09:44:53;;;;;;;50.50;19.83;;;;;;;;;;6291215;28;20056;-61
2023/01/27 09:48:21;;;;;;;54.10;19.77;;;;;;;;;;6292585;28;20144;-60
2023/01/27 09:51:50;;;;;;;58.15;20.83;;;;;;;;;;6294774;28;20063;-61
2023/01/27 09:54:51;;;;;;;58.72;21.25;;;;;;;;;;6250271;28;20060;-61
2023/01/27 09:58:28;;;;;;;57.15;20.95;;;;;;;;;;6292116;28;20835;-61
2023/01/27 10:01:43;;;;;;;65.07;20.30;;;;;;;;;;6301870;28;20143;-61
2023/01/27 10:05:11;;;;;;;63.60;20.83;;;;;;;;;;6307310;28;20405;-61
2023/01/27 10:08:12;;;;;;;58.17;20.20;;;;;;;;;;6292299;28;20139;-61
2023/01/27 10:11:31;;;;;;;58.72;21.13;;;;;;;;;;6292249;28;20037;-61
2023/01/27 10:14:41;;;;;;;75.55;24.20;;;;;;;;;;6292545;28;20060;-60
2023/01/27 10:18:03;;;;;;;73.40;23.85;;;;;;;;;;6291824;28;20055;-61
2023/01/27 10:21:12;;;;;;;85.82;27.85;;;;;;;;;;6296545;28;20178;-62
2023/01/27 10:24:23;;;;;;;64.05;22.33;;;;;;;;;;6315224;28;20051;-61
2023/01/27 10:27:26;;;;;;;59.70;20.10;;;;;;;;;;6294540;28;20461;-60
2023/01/27 10:30:30;;;;;;;;;;;;;;;;;;6292996;28;20041;-61
2023/01/27 10:33:35;;;;;;;107.30;25.60;;;;;;;;;;6313365;28;19928;-61
2023/01/27 10:36:57;;;;;;;278.52;54.85;;;;;;;;;;6310434;28;20053;-61
2023/01/27 10:40:15;;;;;;;160.50;38.08;;;;;;;;;;6294507;28;20040;-61
2023/01/27 10:43:45;;;;;;;129.95;34.22;;;;;;;;;;6303951;28;20078;-64
2023/01/27 10:46:51;;;;;;;70.60;22.17;;;;;;;;;;6307832;28;20131;-60
2023/01/27 10:50:08;;;;;;;64.35;22.58;;;;;;;;;;6303128;28;20100;-60
2023/01/27 10:53:17;;;;;;;66.25;22.52;;;;;;;;;;6315163;28;20058;-60
2023/01/27 10:56:24;;;;;;;67.28;23.10;;;;;;;;;;6308125;28;20044;-60
2023/01/27 10:59:41;;;;;;;65.47;22.55;;;;;;;;;;6295937;28;20043;-60
2023/01/27 11:03:06;;;;;;;65.25;21.73;;;;;;;;;;6294845;28;20047;-60
2023/01/27 11:06:12;;;;;;;64.47;20.58;;;;;;;;;;6295383;28;20062;-62
2023/01/27 11:09:16;;;;;;;58.35;20.42;;;;;;;;;;6312511;28;20044;-64
2023/01/27 11:12:33;;;;;;;51.35;18.83;;;;;;;;;;6299950;28;20044;-60
2023/01/27 11:15:34;;;;;;;58.45;21.13;;;;;;;;;;6318639;28;20486;-60
2023/01/27 11:18:37;;;;;;;56.67;21.17;;;;;;;;;;6295911;28;20056;-58
2023/01/27 11:21:37;;;;;;;64.65;21.25;;;;;;;;;;6296593;28;20513;-60
2023/01/27 11:24:43;;;;;;;55.05;19.90;;;;;;;;;;6319038;28;20056;-60
2023/01/27 11:28:05;;;;;;;56.50;20.27;;;;;;;;;;6298645;28;20056;-60
2023/01/27 11:31:21;;;;;;;51.50;19.27;;;;;;;;;;6297708;28;20488;-60
2023/01/27 11:34:34;;;;;;;54.20;19.42;;;;;;;;;;6320352;28;20058;-62
2023/01/27 11:37:41;;;;;;;51.10;19.77;;;;;;;;;;6296791;28;20055;-64
2023/01/27 11:40:45;;;;;;;63.50;22.25;;;;;;;;;;6294917;28;20049;-63
2023/01/27 11:43:46;;;;;;;54.10;20.80;;;;;;;;;;6296523;28;20452;-61
2023/01/27 11:46:47;;;;;;;53.70;18.60;;;;;;;;;;6294800;28;20053;-61
2023/01/27 11:49:51;;;;;;;52.42;18.13;;;;;;;;;;6294588;28;20048;-62
2023/01/27 11:53:02;;;;;;;50.42;17.70;;;;;;;;;;6296955;28;20045;-62
2023/01/27 11:56:07;;;;;;;48.13;17.70;;;;;;;;;;6294178;28;20137;-61
2023/01/27 11:59:15;;;;;;;53.97;18.50;;;;;;;;;;6291774;28;20135;-61
2023/01/27 12:02:30;;;;;;;45.72;16.45;;;;;;;;;;6298101;28;20563;-66
2023/01/27 12:05:40;;;;;;;46.72;16.30;;;;;;;;;;6316535;28;20048;-62
2023/01/27 12:08:43;;;;;;;48.92;15.88;;;;;;;;;;6319139;28;20052;-60
2023/01/27 12:11:44;;;;;;;50.83;15.85;;;;;;;;;;6320000;28;20125;-62
2023/01/27 12:14:56;;;;;;;57.38;17.65;;;;;;;;;;6319222;28;20047;-63
2023/01/27 12:18:04;;;;;;;55.85;18.52;;;;;;;;;;6320107;28;20180;-65
2023/01/27 12:21:07;;;;;;;55.33;17.88;;;;;;;;;;6319849;28;20085;-64
2023/01/27 12:24:31;;;;;;;51.17;17.45;;;;;;;;;;6319230;28;20940;-65
2023/01/27 12:27:46;;;;;;;49.35;16.60;;;;;;;;;;6319742;28;20056;-61
2023/01/27 12:30:47;;;;;;;52.50;18.20;;;;;;;;;;6319869;28;20151;-68
2023/01/27 12:33:58;;;;;;;47.67;17.33;;;;;;;;;;6320024;28;20135;-64
2023/01/27 12:37:00;;;;;;;49.72;17.60;;;;;;;;;;6319335;28;20058;-61
2023/01/27 12:40:04;;;;;;;46.95;17.10;;;;;;;;;;6295605;28;20475;-61
2023/01/27 12:43:13;;;;;;;49.58;16.98;;;;;;;;;;6263783;28;20076;-59
2023/01/27 12:46:20;;;;;;;43.03;16.60;;;;;;;;;;6277258;28;20127;-62
2023/01/27 12:49:21;;;;;;;47.67;17.05;;;;;;;;;;6271523;28;20053;-60
2023/01/27 12:52:22;;;;;;;57.07;18.17;;;;;;;;;;6268647;28;20063;-64
2023/01/27 12:55:32;;;;;;;61.33;19.40;;;;;;;;;;6272504;28;20075;-65
2023/01/27 12:58:42;;;;;;;57.65;19.30;;;;;;;;;;6272416;28;20053;-63
2023/01/27 13:01:45;;;;;;;53.22;18.92;;;;;;;;;;6267856;28;20041;-60
2023/01/27 13:05:00;;;;;;;51.03;19.50;;;;;;;;;;6268879;28;20053;-59
2023/01/27 13:08:00;;;;;;;58.17;19.63;;;;;;;;;;6267565;28;20048;-61
2023/01/27 13:11:02;;;;;;;49.35;18.35;;;;;;;;;;6269097;28;20118;-59
2023/01/27 13:14:07;;;;;;;48.47;19.08;;;;;;;;;;6275424;28;20483;-61
2023/01/27 13:17:33;;;;;;;56.03;19.27;;;;;;;;;;6270261;28;20052;-61
2023/01/27 13:20:44;;;;;;;52.90;18.15;;;;;;;;;;6272146;28;20507;-61
2023/01/27 13:23:47;;;;;;;53.83;20.25;;;;;;;;;;6268114;28;20052;-60
2023/01/27 13:26:50;;;;;;;50.08;18.23;;;;;;;;;;6271237;28;20052;-60
2023/01/27 13:30:09;;;;;;;47.70;16.08;;;;;;;;;;6268374;28;20054;-61
2023/01/27 13:33:24;;;;;;;48.05;17.25;;;;;;;;;;6271331;28;20482;-61
2023/01/27 13:36:45;;;;;;;43.03;17.20;;;;;;;;;;6270528;28;20485;-60
2023/01/27 13:39:52;;;;;;;52.92;17.15;;;;;;;;;;6269228;28;20506;-59
2023/01/27 13:43:00;;;;;;;54.50;17.98;;;;;;;;;;6268326;28;20097;-59
2023/01/27 13:46:11;;;;;;;44.70;15.77;;;;;;;;;;6270118;28;20418;-60
2023/01/27 13:49:21;;;;;;;56.60;17.85;;;;;;;;;;6271024;28;20076;-57
2023/01/27 13:52:23;;;;;;;41.70;14.98;;;;;;;;;;6268057;28;20052;-60
2023/01/27 13:55:50;;;;;;;42.17;16.00;;;;;;;;;;6267632;28;20083;-59
2023/01/27 13:59:18;;;;;;;52.83;16.60;;;;;;;;;;6269431;28;20084;-59
2023/01/27 14:02:56;;;;;;;52.05;16.85;;;;;;;;;;6269442;28;20053;-58
2023/01/27 14:06:08;;;;;;;44.58;16.17;;;;;;;;;;6261473;28;20055;-60
2023/01/27 14:09:11;;;;;;;41.97;15.07;;;;;;;;;;6266198;28;20055;-60
2023/01/27 14:12:44;;;;;;;44.22;16.73;;;;;;;;;;6267749;28;20052;-60
2023/01/27 14:15:54;;;;;;;;;;;;;;;;;;6266773;28;20135;-60
2023/01/27 14:19:24;;;;;;;44.60;17.48;;;;;;;;;;6270072;28;20045;-58
2023/01/27 14:22:36;;;;;;;51.72;19.48;;;;;;;;;;6268558;28;20049;-61
2023/01/27 14:25:54;;;;;;;70.30;21.70;;;;;;;;;;6268217;28;20195;-58
2023/01/27 14:29:22;;;;;;;59.83;20.25;;;;;;;;;;6269812;28;20048;-59
2023/01/27 14:32:45;;;;;;;57.22;20.88;;;;;;;;;;6266392;28;20052;-59
2023/01/27 14:36:33;;;;;;;44.67;17.92;;;;;;;;;;6270851;28;20045;-59
2023/01/27 14:39:54;;;;;;;47.50;16.75;;;;;;;;;;6158749;28;20522;-60
2023/01/27 14:43:12;;;;;;;47.97;17.80;;;;;;;;;;6268215;28;20143;-59
2023/01/27 14:46:32;;;;;;;47.85;16.55;;;;;;;;;;6268314;28;20072;-59
2023/01/27 14:49:45;;;;;;;49.70;17.15;;;;;;;;;;6267868;28;20056;-60
2023/01/27 14:53:11;;;;;;;48.13;18.52;;;;;;;;;;6269020;28;20033;-59
2023/01/27 14:56:34;;;;;;;57.78;19.15;;;;;;;;;;6268756;28;20552;-58
2023/01/27 15:00:13;;;;;;;56.10;19.75;;;;;;;;;;6267508;28;20053;-59
2023/01/27 15:03:51;;;;;;;64.07;22.42;;;;;;;;;;6267905;28;20493;-58
2023/01/27 15:07:26;;;;;;;51.17;19.02;;;;;;;;;;6268168;28;20064;-59
2023/01/27 15:10:29;;;;;;;50.95;19.48;;;;;;;;;;6264553;28;20049;-58
2023/01/27 15:13:35;;;;;;;48.45;17.25;;;;;;;;;;6267069;28;20146;-61
2023/01/27 15:17:20;;;;;;;49.13;17.17;;;;;;;;;;6270316;28;20054;-59
2023/01/27 15:20:39;;;;;;;48.40;19.27;;;;;;;;;;6266378;28;20138;-58
2023/01/27 15:23:52;;;;;;;47.97;17.45;;;;;;;;;;6275292;28;20056;-61
2023/01/27 15:26:53;;;;;;;52.22;18.15;;;;;;;;;;6273485;28;20074;-58
2023/01/27 15:29:54;;;;;;;53.88;21.27;;;;;;;;;;6270942;28;21228;-59
2023/01/27 15:32:55;;;;;;;55.08;20.35;;;;;;;;;;6272748;28;20090;-60
2023/01/27 15:36:31;;;;;;;52.33;19.15;;;;;;;;;;6269669;28;20758;-59
2023/01/27 15:40:03;;;;;;;52.40;20.00;;;;;;;;;;6172346;28;20043;-61
2023/01/27 15:43:04;;;;;;;55.38;19.73;;;;;;;;;;6172494;28;20084;-62
2023/01/27 15:46:23;;;;;;;48.13;17.13;;;;;;;;;;6177602;28;20055;-61
2023/01/27 15:49:29;;;;;;;60.95;20.13;;;;;;;;;;6171762;28;20051;-58
2023/01/27 15:52:51;;;;;;;47.78;18.42;;;;;;;;;;6171786;28;20161;-61
2023/01/27 15:55:54;;;;;;;54.22;18.52;;;;;;;;;;6173052;28;20105;-64
2023/01/27 15:59:02;;;;;;;46.67;18.70;;;;;;;;;;6181621;28;20054;-61
2023/01/27 16:02:24;;;;;;;54.17;20.08;;;;;;;;;;6179886;28;20065;-62
2023/01/27 16:05:36;;;;;;;55.40;20.20;;;;;;;;;;6181875;28;20152;-65
2023/01/27 16:08:42;;;;;;;79.93;24.38;;;;;;;;;;6181854;28;20050;-61
2023/01/27 16:11:56;;;;;;;60.50;21.55;;;;;;;;;;6268758;28;20450;-61
2023/01/27 16:14:59;;;;;;;59.20;20.65;;;;;;;;;;6283121;28;21310;-63
2023/01/27 16:18:06;;;;;;;64.43;22.92;;;;;;;;;;6277762;28;20056;-61
2023/01/27 16:21:40;;;;;;;55.50;19.65;;;;;;;;;;6274923;28;20059;-60
2023/01/27 16:24:46;;;;;;;57.05;19.98;;;;;;;;;;6273719;28;20060;-58
2023/01/27 16:27:59;;;;;;;48.83;17.60;;;;;;;;;;6273528;28;20051;-61
2023/01/27 16:30:59;;;;;;;60.35;19.77;;;;;;;;;;6268784;28;20044;-59
2023/01/27 16:34:04;;;;;;;67.20;20.10;;;;;;;;;;6273633;28;20059;-61
2023/01/27 16:37:32;;;;;;;55.75;17.20;;;;;;;;;;6280386;28;20443;-59
2023/01/27 16:40:34;;;;;;;66.85;18.88;;;;;;;;;;6248457;28;20197;-60
2023/01/27 16:43:44;;;;;;;52.78;17.40;;;;;;;;;;6283454;28;20491;-58
2023/01/27 16:46:49;;;;;;;40.80;12.52;;;;;;;;;;6273191;28;20151;-60
2023/01/27 16:49:52;;;;;;;42.67;14.02;;;;;;;;;;6273393;28;20083;-62
2023/01/27 16:52:53;;;;;;;26.55;10.98;;;;;;;;;;6279738;28;20582;-63
2023/01/27 16:56:00;;;;;;;25.10;9.90;;;;;;;;;;6271467;28;20067;-61
2023/01/27 16:59:06;;;;;;;26.35;10.32;;;;;;;;;;6271614;28;20070;-61
2023/01/27 17:02:18;;;;;;;22.90;9.98;;;;;;;;;;6271253;28;20052;-61
2023/01/27 17:05:19;;;;;;;23.65;9.82;;;;;;;;;;6272617;28;20048;-59
2023/01/27 17:08:29;;;;;;;27.08;12.27;;;;;;;;;;6271081;28;20491;-60
2023/01/27 17:11:31;;;;;;;28.40;11.30;;;;;;;;;;6278484;28;20060;-60
2023/01/27 17:14:33;;;;;;;;;;;;;;;;;;6273437;28;20056;-60
2023/01/27 17:17:34;;;;;;;26.50;11.40;;;;;;;;;;6265512;28;19951;-60
2023/01/27 17:20:39;;;;;;;26.23;11.80;;;;;;;;;;6278638;28;20052;-60
2023/01/27 17:23:42;;;;;;;25.92;10.98;;;;;;;;;;6272715;28;20079;-60
2023/01/27 17:26:46;;;;;;;25.20;10.50;;;;;;;;;;6279180;28;20063;-60
2023/01/27 17:29:48;;;;;;;25.50;10.32;;;;;;;;;;6281336;28;20044;-62
2023/01/27 17:32:53;;;;;;;27.15;10.80;;;;;;;;;;6268710;28;20040;-61
2023/01/27 17:35:56;;;;;;;27.67;11.90;;;;;;;;;;6270308;28;20419;-61
2023/01/27 17:38:57;;;;;;;31.77;11.07;;;;;;;;;;6281558;28;20077;-61
2023/01/27 17:42:00;;;;;;;27.33;11.82;;;;;;;;;;6268528;28;20060;-61
2023/01/27 17:45:21;;;;;;;28.30;11.23;;;;;;;;;;6289704;28;20140;-61
2023/01/27 17:48:22;;;;;;;32.10;12.90;;;;;;;;;;6280041;28;20052;-61
2023/01/27 17:51:27;;;;;;;33.70;13.52;;;;;;;;;;6271156;28;20462;-60
2023/01/27 17:54:32;;;;;;;43.58;16.27;;;;;;;;;;6269838;28;20515;-61
2023/01/27 17:57:35;;;;;;;33.63;13.98;;;;;;;;;;6269617;28;20515;-61
2023/01/27 18:00:40;;;;;;;;;;;;;;;;;;6272830;28;20167;-60
2023/01/27 18:03:41;;;;;;;35.95;12.35;;;;;;;;;;6281500;28;19932;-62
2023/01/27 18:06:41;;;;;;;33.13;12.93;;;;;;;;;;6276329;28;20068;-60
2023/01/27 18:09:45;;;;;;;34.90;13.13;;;;;;;;;;6276636;28;20064;-61
2023/01/27 18:12:46;;;;;;;36.45;14.30;;;;;;;;;;6268565;28;20072;-62
2023/01/27 18:15:57;;;;;;;47.40;17.05;;;;;;;;;;6272888;28;20041;-61
2023/01/27 18:19:19;;;;;;;42.20;15.82;;;;;;;;;;6264701;28;20075;-63
2023/01/27 18:22:24;;;;;;;39.72;16.40;;;;;;;;;;6264091;28;20470;-61
2023/01/27 18:25:25;;;;;;;33.38;14.90;;;;;;;;;;6270542;28;20045;-61
2023/01/27 18:28:27;;;;;;;50.75;19.60;;;;;;;;;;6268941;28;20075;-60
2023/01/27 18:31:30;;;;;;;;;;;;;;;;;;6267419;28;20059;-61